createdAt,value
2022-09-24T00:01:53.081Z,76.68
2022-09-24T00:04:26.275Z,76.69
2022-09-24T00:06:57.531Z,76.86
2022-09-24T00:09:28.858Z,77.09
2022-09-24T00:12:00.979Z,76.95
2022-09-24T00:14:32.367Z,76.95
2022-09-24T00:17:03.618Z,77.07
2022-09-24T00:19:34.880Z,76.89
2022-09-24T00:22:06.169Z,77.18
2022-09-24T00:24:56.937Z,77.15
2022-09-24T00:27:28.254Z,77.29
2022-09-24T00:29:59.528Z,77.28
2022-09-24T00:32:30.850Z,76.94
2022-09-24T00:35:02.095Z,77.17
2022-09-24T00:37:33.355Z,76.69
2022-09-24T00:40:05.961Z,77.08
2022-09-24T00:42:37.303Z,77.02
2022-09-24T00:45:11.631Z,77.21
2022-09-24T00:47:44.760Z,77.19
2022-09-24T00:50:31.495Z,77.27
2022-09-24T00:53:17.912Z,77.51
2022-09-24T00:55:54.140Z,77.30
2022-09-24T00:58:26.684Z,77.36
2022-09-24T01:01:05.554Z,77.14
2022-09-24T01:03:42.273Z,77.44
2022-09-24T01:06:13.832Z,77.57
2022-09-24T01:08:46.105Z,77.31
2022-09-24T01:11:44.223Z,77.24
2022-09-24T01:14:26.979Z,77.32
2022-09-24T01:17:32.070Z,77.58
2022-09-24T01:20:16.412Z,77.57
2022-09-24T01:23:03.381Z,77.56
2022-09-24T01:26:19.821Z,77.27
2022-09-24T01:29:05.828Z,77.59
2022-09-24T01:31:46.869Z,77.58
2022-09-24T01:34:26.834Z,77.53
2022-09-24T01:37:00.048Z,77.57
2022-09-24T01:39:33.136Z,77.53
2022-09-24T01:42:05.487Z,77.84
2022-09-24T01:44:39.681Z,77.65
2022-09-24T01:47:19.975Z,77.88
2022-09-24T01:49:53.639Z,77.88
2022-09-24T01:52:31.736Z,77.78
2022-09-24T01:55:07.671Z,77.85
2022-09-24T01:57:45.428Z,77.72
2022-09-24T02:00:21.566Z,78.07
2022-09-24T02:02:55.679Z,77.88
2022-09-24T02:05:38.813Z,77.67
2022-09-24T02:08:22.184Z,77.81
2022-09-24T02:11:02.398Z,77.87
2022-09-24T02:13:39.547Z,77.79
2022-09-24T02:16:14.664Z,77.82
2022-09-24T02:18:48.278Z,78.09
2022-09-24T02:21:21.915Z,77.96
2022-09-24T02:24:10.731Z,78.62
2022-09-24T02:26:42.697Z,78.02
2022-09-24T02:29:14.278Z,78.18
2022-09-24T02:31:49.488Z,78.39
2022-09-24T02:34:29.873Z,78.52
2022-09-24T02:37:06.558Z,78.58
2022-09-24T02:39:38.115Z,77.96
2022-09-24T02:42:11.699Z,78.68
2022-09-24T02:44:43.045Z,78.88
2022-09-24T02:47:14.694Z,79.22
2022-09-24T02:49:45.979Z,79.20
2022-09-24T02:52:18.674Z,79.28
2022-09-24T02:54:50.542Z,79.15
2022-09-24T02:57:21.856Z,79.31
2022-09-24T02:59:53.141Z,79.56
2022-09-24T03:02:24.515Z,79.61
2022-09-24T03:04:56.334Z,79.90
2022-09-24T03:07:27.666Z,80.12
2022-09-24T03:09:59.477Z,80.67
2022-09-24T03:12:30.742Z,81.16
2022-09-24T03:15:02.014Z,81.38
2022-09-24T03:17:33.306Z,81.98
2022-09-24T03:20:05.059Z,82.48
2022-09-24T03:22:36.343Z,82.90
2022-09-24T03:25:08.211Z,83.01
2022-09-24T03:27:39.530Z,83.46
2022-09-24T03:30:30.186Z,83.88
2022-09-24T03:33:01.433Z,84.04
2022-09-24T03:35:32.981Z,84.63
2022-09-24T03:38:04.261Z,84.63
2022-09-24T03:40:35.628Z,84.71
2022-09-24T03:43:07.026Z,85.01
2022-09-24T03:45:39.536Z,85.45
2022-09-24T03:48:11.099Z,85.24
2022-09-24T03:50:43.094Z,85.82
2022-09-24T03:53:15.470Z,85.84
2022-09-24T03:55:49.258Z,85.96
2022-09-24T03:58:20.530Z,86.06
2022-09-24T04:00:53.717Z,86.64
2022-09-24T04:03:25.713Z,86.36
2022-09-24T04:05:57.098Z,86.66
2022-09-24T04:08:28.407Z,86.52
2022-09-24T04:11:00.029Z,86.78
2022-09-24T04:13:31.398Z,86.77
2022-09-24T04:16:04.173Z,86.90
2022-09-24T04:18:39.086Z,86.90
2022-09-24T04:21:10.785Z,87.49
2022-09-24T04:23:42.380Z,87.11
2022-09-24T04:26:13.701Z,87.40
2022-09-24T04:28:44.983Z,87.24
2022-09-24T04:31:16.412Z,87.65
2022-09-24T04:33:47.755Z,87.89
2022-09-24T04:36:19.178Z,88.32
2022-09-24T04:38:50.925Z,88.50
2022-09-24T04:41:22.169Z,88.86
2022-09-24T04:43:53.425Z,89.31
2022-09-24T04:46:24.792Z,89.61
2022-09-24T04:48:56.184Z,89.58
2022-09-24T04:51:27.522Z,89.72
2022-09-24T04:53:59.750Z,89.76
2022-09-24T04:56:31.597Z,89.91
2022-09-24T04:59:02.890Z,90.09
2022-09-24T05:01:34.341Z,90.26
2022-09-24T05:04:05.794Z,90.52
2022-09-24T05:06:37.047Z,91.13
2022-09-24T05:09:12.395Z,91.43
2022-09-24T05:11:44.064Z,91.70
2022-09-24T05:14:15.334Z,91.71
2022-09-24T05:16:49.212Z,91.91
2022-09-24T05:19:21.643Z,91.92
2022-09-24T05:21:53.059Z,91.97
2022-09-24T05:24:24.321Z,92.10
2022-09-24T05:27:10.772Z,92.56
2022-09-24T05:29:43.635Z,92.28
2022-09-24T05:32:18.287Z,92.48
2022-09-24T05:34:50.904Z,92.71
2022-09-24T05:37:22.192Z,92.60
2022-09-24T05:39:54.729Z,92.49
2022-09-24T05:42:25.989Z,92.69
2022-09-24T05:44:57.271Z,92.99
2022-09-24T05:47:28.574Z,92.84
2022-09-24T05:50:00.655Z,92.73
2022-09-24T05:52:31.910Z,92.90
2022-09-24T05:55:03.527Z,93.04
2022-09-24T05:57:34.919Z,93.00
2022-09-24T06:00:07.336Z,93.24
2022-09-24T06:02:38.823Z,93.21
2022-09-24T06:05:10.728Z,93.39
2022-09-24T06:07:41.981Z,93.35
2022-09-24T06:10:13.285Z,93.40
2022-09-24T06:12:44.983Z,93.54
2022-09-24T06:15:16.365Z,93.38
2022-09-24T06:17:47.860Z,93.57
2022-09-24T06:20:19.312Z,93.79
2022-09-24T06:22:50.637Z,93.78
2022-09-24T06:25:21.948Z,93.78
2022-09-24T06:28:01.199Z,93.82
2022-09-24T06:30:35.425Z,94.00
2022-09-24T06:33:15.824Z,94.08
2022-09-24T06:35:48.394Z,94.16
2022-09-24T06:38:26.493Z,94.16
2022-09-24T06:41:04.565Z,94.25
2022-09-24T06:43:36.097Z,94.07
2022-09-24T06:46:07.452Z,94.17
2022-09-24T06:48:39.592Z,94.53
2022-09-24T06:51:10.908Z,94.41
2022-09-24T06:53:42.173Z,94.61
2022-09-24T06:56:13.714Z,94.62
2022-09-24T06:58:45.033Z,94.56
2022-09-24T07:01:16.368Z,94.53
2022-09-24T07:03:47.662Z,94.63
2022-09-24T07:06:18.985Z,94.52
2022-09-24T07:08:51.584Z,94.52
2022-09-24T07:11:23.456Z,94.66
2022-09-24T07:13:54.707Z,94.66
2022-09-24T07:16:26.017Z,94.56
2022-09-24T07:18:58.180Z,94.75
2022-09-24T07:21:29.646Z,94.24
2022-09-24T07:24:00.912Z,94.46
2022-09-24T07:26:32.210Z,94.63
2022-09-24T07:29:04.191Z,94.71
2022-09-24T07:31:36.385Z,94.53
2022-09-24T07:34:09.026Z,94.55
2022-09-24T07:36:41.590Z,94.50
2022-09-24T07:39:12.875Z,94.31
2022-09-24T07:41:44.527Z,94.65
2022-09-24T07:44:16.021Z,94.61
2022-09-24T07:46:48.630Z,94.69
2022-09-24T07:49:19.941Z,94.69
2022-09-24T07:51:51.249Z,94.71
2022-09-24T07:54:22.627Z,94.94
2022-09-24T07:56:54.305Z,95.21
2022-09-24T07:59:25.793Z,94.81
2022-09-24T08:01:57.563Z,94.46
2022-09-24T08:04:29.051Z,94.74
2022-09-24T08:07:01.152Z,94.68
2022-09-24T08:09:32.999Z,94.27
2022-09-24T08:12:04.895Z,94.70
2022-09-24T08:14:36.277Z,94.71
2022-09-24T08:17:07.576Z,94.65
2022-09-24T08:19:40.154Z,94.22
2022-09-24T08:22:12.144Z,94.74
2022-09-24T08:24:43.476Z,94.30
2022-09-24T08:27:17.342Z,94.73
2022-09-24T08:29:48.857Z,94.81
2022-09-24T08:32:20.289Z,94.26
2022-09-24T08:34:52.851Z,93.96
2022-09-24T08:37:24.309Z,93.83
2022-09-24T08:39:55.917Z,93.62
2022-09-24T08:42:36.182Z,93.60
2022-09-24T08:45:29.631Z,92.98
2022-09-24T08:48:13.698Z,93.84
2022-09-24T08:50:58.179Z,93.57
2022-09-24T08:53:37.908Z,93.93
2022-09-24T08:56:11.160Z,93.42
2022-09-24T08:58:58.998Z,93.05
2022-09-24T09:01:45.924Z,93.40
2022-09-24T09:04:40.861Z,93.15
2022-09-24T09:07:23.143Z,93.13
2022-09-24T09:10:03.417Z,93.16
2022-09-24T09:12:39.518Z,93.55
2022-09-24T09:15:13.484Z,93.16
2022-09-24T09:18:01.579Z,93.55
2022-09-24T09:20:41.390Z,93.44
2022-09-24T09:23:21.636Z,93.30
2022-09-24T09:25:57.509Z,93.38
2022-09-24T09:28:29.697Z,93.07
2022-09-24T09:31:19.962Z,93.06
2022-09-24T09:34:03.224Z,93.47
2022-09-24T09:36:54.817Z,93.02
2022-09-24T09:40:03.711Z,93.24
2022-09-24T09:42:37.034Z,93.79
2022-09-24T09:45:23.077Z,93.63
2022-09-24T09:47:59.066Z,93.19
2022-09-24T09:50:36.800Z,93.64
2022-09-24T09:53:25.361Z,93.79
2022-09-24T09:56:01.371Z,93.86
2022-09-24T09:58:52.872Z,93.39
2022-09-24T10:01:32.022Z,93.53
2022-09-24T10:04:04.843Z,93.59
2022-09-24T10:06:36.837Z,93.49
2022-09-24T10:09:13.609Z,93.83
2022-09-24T10:11:45.354Z,94.36
2022-09-24T10:14:22.023Z,93.81
2022-09-24T10:16:56.118Z,93.74
2022-09-24T10:19:34.061Z,93.77
2022-09-24T10:22:21.635Z,93.71
2022-09-24T10:24:55.872Z,93.87
2022-09-24T10:27:32.903Z,93.55
2022-09-24T10:30:34.569Z,94.03
2022-09-24T10:33:06.377Z,94.03
2022-09-24T10:35:38.660Z,94.33
2022-09-24T10:38:22.086Z,93.48
2022-09-24T10:40:53.545Z,93.52
2022-09-24T10:43:24.922Z,93.75
2022-09-24T10:46:14.717Z,93.54
2022-09-24T10:49:17.515Z,93.49
2022-09-24T10:52:12.529Z,93.77
2022-09-24T10:54:54.158Z,93.85
2022-09-24T10:57:55.498Z,93.96
2022-09-24T11:00:38.568Z,93.84
2022-09-24T11:03:24.401Z,93.48
2022-09-24T11:06:29.726Z,93.17
2022-09-24T11:09:13.746Z,92.95
2022-09-24T11:12:15.469Z,93.14
2022-09-24T11:14:55.445Z,93.44
2022-09-24T11:18:02.215Z,93.11
2022-09-24T11:20:38.600Z,93.34
2022-09-24T11:23:54.369Z,93.77
2022-09-24T11:26:57.920Z,93.95
2022-09-24T11:30:06.997Z,93.90
2022-09-24T11:33:04.287Z,93.82
2022-09-24T11:35:57.488Z,93.68
2022-09-24T11:38:47.992Z,93.02
2022-09-24T11:41:33.412Z,92.08
2022-09-24T11:44:31.640Z,91.91
2022-09-24T11:47:26.267Z,92.00
2022-09-24T11:50:00.886Z,92.10
2022-09-24T11:52:41.097Z,91.85
2022-09-24T11:55:21.722Z,92.12
2022-09-24T11:58:04.650Z,91.93
2022-09-24T12:00:42.894Z,91.27
2022-09-24T12:03:26.262Z,91.25
2022-09-24T12:06:04.006Z,91.43
2022-09-24T12:08:43.665Z,90.76
2022-09-24T12:11:22.957Z,91.02
2022-09-24T12:14:11.454Z,91.00
2022-09-24T12:16:45.720Z,90.39
2022-09-24T12:19:32.667Z,90.25
2022-09-24T12:22:05.737Z,90.34
2022-09-24T12:24:47.419Z,90.34
2022-09-24T12:27:36.707Z,90.16
2022-09-24T12:30:33.004Z,89.93
2022-09-24T12:33:29.542Z,90.28
2022-09-24T12:36:20.452Z,90.79
2022-09-24T12:38:56.885Z,90.95
2022-09-24T12:41:34.146Z,90.74
2022-09-24T12:44:11.198Z,90.09
2022-09-24T12:46:56.660Z,90.52
2022-09-24T12:49:35.403Z,90.51
2022-09-24T12:52:19.065Z,90.70
2022-09-24T12:55:02.857Z,91.08
2022-09-24T12:57:43.257Z,91.10
2022-09-24T13:00:41.327Z,90.83
2022-09-24T13:03:47.382Z,91.13
2022-09-24T13:06:37.768Z,91.18
2022-09-24T13:09:38.989Z,91.09
2022-09-24T13:12:14.247Z,91.15
2022-09-24T13:14:54.740Z,91.30
2022-09-24T13:17:26.304Z,91.80
2022-09-24T13:20:00.754Z,91.49
2022-09-24T13:22:34.711Z,91.68
2022-09-24T13:25:08.897Z,91.83
2022-09-24T13:27:42.469Z,91.93
2022-09-24T13:30:19.702Z,91.77
2022-09-24T13:33:00.267Z,91.88
2022-09-24T13:35:43.425Z,91.79
2022-09-24T13:38:34.737Z,92.09
2022-09-24T13:41:25.853Z,91.92
2022-09-24T13:44:04.471Z,92.14
2022-09-24T13:46:40.974Z,91.88
2022-09-24T13:49:17.612Z,92.19
2022-09-24T13:51:59.704Z,92.06
2022-09-24T13:54:39.616Z,92.16
2022-09-24T13:57:21.801Z,92.29
2022-09-24T14:00:21.071Z,92.24
2022-09-24T14:02:57.257Z,92.40
2022-09-24T14:05:31.249Z,92.38
2022-09-24T14:08:09.738Z,92.57
2022-09-24T14:10:42.025Z,92.68
2022-09-24T14:13:21.353Z,92.62
2022-09-24T14:16:14.314Z,92.62
2022-09-24T14:18:47.030Z,92.32
2022-09-24T14:21:30.316Z,92.36
2022-09-24T14:24:18.992Z,91.88
2022-09-24T14:27:13.398Z,92.14
2022-09-24T14:29:59.330Z,91.92
2022-09-24T14:32:56.935Z,92.03
2022-09-24T14:35:35.535Z,92.12
2022-09-24T14:38:24.806Z,92.09
2022-09-24T14:41:02.779Z,92.16
2022-09-24T14:44:08.668Z,92.22
2022-09-24T14:46:52.712Z,92.46
2022-09-24T14:49:31.010Z,92.75
2022-09-24T14:52:04.227Z,92.48
2022-09-24T14:54:40.260Z,92.52
2022-09-24T14:57:23.214Z,92.17
2022-09-24T14:59:54.632Z,92.71
2022-09-24T15:02:28.637Z,92.72
2022-09-24T15:05:07.730Z,92.83
2022-09-24T15:07:39.870Z,92.30
2022-09-24T15:10:22.269Z,93.16
2022-09-24T15:12:53.493Z,92.86
2022-09-24T15:15:31.991Z,92.93
2022-09-24T15:18:03.863Z,92.71
2022-09-24T15:20:35.176Z,92.75
2022-09-24T15:23:06.571Z,92.60
2022-09-24T15:25:38.458Z,92.86
2022-09-24T15:28:14.214Z,92.92
2022-09-24T15:30:45.532Z,93.06
2022-09-24T15:33:17.512Z,92.96
2022-09-24T15:35:49.124Z,93.00
2022-09-24T15:38:20.663Z,93.02
2022-09-24T15:40:53.716Z,92.77
2022-09-24T15:43:25.334Z,92.76
2022-09-24T15:45:56.668Z,92.74
2022-09-24T15:48:28.077Z,92.85
2022-09-24T15:51:05.846Z,93.03
2022-09-24T15:53:41.072Z,92.91
2022-09-24T15:56:12.431Z,92.93
2022-09-24T15:58:43.693Z,92.93
2022-09-24T16:01:18.170Z,92.76
2022-09-24T16:03:49.553Z,93.00
2022-09-24T16:06:21.494Z,92.78
2022-09-24T16:08:52.736Z,92.84
2022-09-24T16:11:24.003Z,92.63
2022-09-24T16:13:55.298Z,93.00
2022-09-24T16:16:26.626Z,92.83
2022-09-24T16:18:58.101Z,93.20
2022-09-24T16:21:29.346Z,93.49
2022-09-24T16:24:01.263Z,93.03
2022-09-24T16:26:34.308Z,93.21
2022-09-24T16:29:07.056Z,93.39
2022-09-24T16:31:38.488Z,93.48
2022-09-24T16:34:11.377Z,93.48
2022-09-24T16:36:42.636Z,93.44
2022-09-24T16:39:15.806Z,93.66
2022-09-24T16:41:51.312Z,93.55
2022-09-24T16:44:22.657Z,93.60
2022-09-24T16:46:53.986Z,93.90
2022-09-24T16:49:25.534Z,94.03
2022-09-24T16:51:56.838Z,94.06
2022-09-24T16:54:29.545Z,93.99
2022-09-24T16:57:01.790Z,94.50
2022-09-24T16:59:33.234Z,94.25
2022-09-24T17:02:04.597Z,94.41
2022-09-24T17:04:36.024Z,94.23
2022-09-24T17:07:07.364Z,95.03
2022-09-24T17:09:58.729Z,94.26
2022-09-24T17:12:30.197Z,94.50
2022-09-24T17:15:04.304Z,94.64
2022-09-24T17:17:43.186Z,94.71
2022-09-24T17:20:18.786Z,94.73
2022-09-24T17:22:50.180Z,94.86
2022-09-24T17:25:21.549Z,94.87
2022-09-24T17:27:52.950Z,95.08
2022-09-24T17:30:24.419Z,95.03
2022-09-24T17:32:55.711Z,94.99
2022-09-24T17:35:27.033Z,95.28
2022-09-24T17:38:00.516Z,95.31
2022-09-24T17:40:31.857Z,95.23
2022-09-24T17:43:03.995Z,95.14
2022-09-24T17:45:35.542Z,95.23
2022-09-24T17:48:06.940Z,94.92
2022-09-24T17:50:38.246Z,95.35
2022-09-24T17:53:14.971Z,95.23
2022-09-24T17:55:50.976Z,95.22
2022-09-24T17:58:22.644Z,95.26
2022-09-24T18:00:54.917Z,95.29
2022-09-24T18:03:26.175Z,95.53
2022-09-24T18:06:01.803Z,95.53
2022-09-24T18:08:37.276Z,95.40
2022-09-24T18:11:10.471Z,95.50
2022-09-24T18:13:41.921Z,95.53
2022-09-24T18:16:16.044Z,95.31
2022-09-24T18:18:50.930Z,95.66
2022-09-24T18:21:24.062Z,95.57
2022-09-24T18:23:56.902Z,95.46
2022-09-24T18:26:34.146Z,95.58
2022-09-24T18:29:16.723Z,95.43
2022-09-24T18:31:49.293Z,95.47
2022-09-24T18:34:20.684Z,95.23
2022-09-24T18:36:51.963Z,95.54
2022-09-24T18:39:25.513Z,95.34
2022-09-24T18:41:57.358Z,95.77
2022-09-24T18:44:28.651Z,95.55
2022-09-24T18:46:59.895Z,95.47
2022-09-24T18:49:31.227Z,95.39
2022-09-24T18:52:02.506Z,95.28
2022-09-24T18:54:34.031Z,95.23
2022-09-24T18:57:05.559Z,95.44
2022-09-24T18:59:44.995Z,95.59
2022-09-24T19:02:16.541Z,95.30
2022-09-24T19:04:47.883Z,95.36
2022-09-24T19:07:19.253Z,95.48
2022-09-24T19:09:50.587Z,95.11
2022-09-24T19:12:21.828Z,95.54
2022-09-24T19:14:54.242Z,95.30
2022-09-24T19:17:26.545Z,95.29
2022-09-24T19:19:59.049Z,95.66
2022-09-24T19:22:30.433Z,95.60
2022-09-24T19:25:01.823Z,95.46
2022-09-24T19:27:33.199Z,95.36
2022-09-24T19:30:04.983Z,95.62
2022-09-24T19:32:37.084Z,95.63
2022-09-24T19:35:08.592Z,95.44
2022-09-24T19:37:40.294Z,95.55
2022-09-24T19:40:13.134Z,95.41
2022-09-24T19:42:44.430Z,95.57
2022-09-24T19:45:15.742Z,95.48
2022-09-24T19:47:47.063Z,95.78
2022-09-24T19:50:19.285Z,95.96
2022-09-24T19:52:51.849Z,95.98
2022-09-24T19:55:27.791Z,95.90
2022-09-24T19:58:01.349Z,96.10
2022-09-24T20:00:33.470Z,96.07
2022-09-24T20:03:05.108Z,96.00
2022-09-24T20:05:37.153Z,95.67
2022-09-24T20:08:11.193Z,95.97
2022-09-24T20:10:43.111Z,95.90
2022-09-24T20:13:14.456Z,95.77
2022-09-24T20:15:45.877Z,96.01
2022-09-24T20:18:17.739Z,96.17
2022-09-24T20:20:48.994Z,95.47
2022-09-24T20:23:23.893Z,96.27
2022-09-24T20:26:14.294Z,96.19
2022-09-24T20:28:45.654Z,96.08
2022-09-24T20:31:19.077Z,96.26
2022-09-24T20:33:50.600Z,96.12
2022-09-24T20:36:24.360Z,96.28
2022-09-24T20:38:58.738Z,96.30
2022-09-24T20:41:29.982Z,96.13
2022-09-24T20:44:01.551Z,96.24
2022-09-24T20:46:32.891Z,96.41
2022-09-24T20:49:04.953Z,96.30
2022-09-24T20:51:37.120Z,96.25
2022-09-24T20:54:08.857Z,96.35
2022-09-24T20:56:40.217Z,96.12
2022-09-24T20:59:11.823Z,96.30
2022-09-24T21:01:44.709Z,96.04
2022-09-24T21:04:17.190Z,96.04
2022-09-24T21:06:49.524Z,96.37
2022-09-24T21:09:20.786Z,96.56
2022-09-24T21:11:53.031Z,96.73
2022-09-24T21:14:24.515Z,96.52
2022-09-24T21:16:56.381Z,96.31
2022-09-24T21:19:27.889Z,96.33
2022-09-24T21:21:59.695Z,96.01
2022-09-24T21:24:31.780Z,96.40
2022-09-24T21:27:05.176Z,96.21
2022-09-24T21:29:36.451Z,96.36
2022-09-24T21:32:07.697Z,96.27
2022-09-24T21:34:39.218Z,95.86
2022-09-24T21:37:14.530Z,96.52
2022-09-24T21:39:46.167Z,96.20
2022-09-24T21:42:19.626Z,95.90
2022-09-24T21:44:51.030Z,96.47
2022-09-24T21:47:22.298Z,96.40
2022-09-24T21:49:53.561Z,96.73
2022-09-24T21:52:26.534Z,96.83
2022-09-24T21:54:57.865Z,97.02
2022-09-24T21:57:29.105Z,96.85
2022-09-24T22:00:00.589Z,96.55
2022-09-24T22:02:31.934Z,96.50
2022-09-24T22:05:03.370Z,96.59
2022-09-24T22:07:34.609Z,96.39
2022-09-24T22:10:06.498Z,96.49
2022-09-24T22:12:37.789Z,97.36
2022-09-24T22:15:10.236Z,96.13
2022-09-24T22:17:42.304Z,96.14
2022-09-24T22:20:13.561Z,96.72
2022-09-24T22:22:44.923Z,96.10
2022-09-24T22:25:16.254Z,96.31
2022-09-24T22:27:47.697Z,96.18
2022-09-24T22:30:18.978Z,96.32
2022-09-24T22:32:50.214Z,96.10
2022-09-24T22:35:43.338Z,95.58
2022-09-24T22:38:16.189Z,95.90
2022-09-24T22:40:47.879Z,96.21
2022-09-24T22:43:19.293Z,96.45
2022-09-24T22:45:50.723Z,96.09
2022-09-24T22:48:22.001Z,96.15
2022-09-24T22:50:53.425Z,95.98
2022-09-24T22:53:25.207Z,96.10
2022-09-24T22:56:14.980Z,95.99
2022-09-24T22:58:52.298Z,95.89
2022-09-24T23:01:26.387Z,96.03
2022-09-24T23:03:58.537Z,96.22
2022-09-24T23:06:31.326Z,96.10
2022-09-24T23:09:03.682Z,95.75
2022-09-24T23:11:35.658Z,95.94
2022-09-24T23:14:12.636Z,96.30
2022-09-24T23:16:44.303Z,95.96
2022-09-24T23:19:19.133Z,96.05
2022-09-24T23:21:50.408Z,96.23
2022-09-24T23:24:21.961Z,95.82
2022-09-24T23:26:54.261Z,95.02
2022-09-24T23:29:25.592Z,96.29
2022-09-24T23:31:56.861Z,95.85
2022-09-24T23:34:28.158Z,96.37
2022-09-24T23:36:59.611Z,95.86
2022-09-24T23:39:30.892Z,96.10
2022-09-24T23:42:02.136Z,96.02
2022-09-24T23:44:34.517Z,96.21
2022-09-24T23:47:05.903Z,96.13
2022-09-24T23:49:37.166Z,96.29
2022-09-24T23:52:08.434Z,96.02
2022-09-24T23:54:40.231Z,95.87
2022-09-24T23:57:11.582Z,95.77
2022-09-24T23:59:42.866Z,96.16
